AAA2215 YSSY-YSCB
Flight info
| Callsign | AAA2215 |
|---|---|
| Flight time | 0h 32m |
| Altitude | 16000 |
| Route | WOL H65 CB |
| Aircraft | RJ1H/M-SDFGIRWY/LB1 |
Departure
| Time | 2026-05-06 06:48 |
|---|---|
| Airport | Sydney Kingsford Smith International Airport (YSSY) |
Arrival
| Time | 2026-05-06 07:20 |
|---|---|
| Airport | Canberra Airport (YSCB) |
| Time | Latitude | Longitude | Altitude | Speed | Heading |
|---|---|---|---|---|---|
| 2026-05-06 06:21 | -33.93588 | 151.18128 | 30 ft | 0 kts | 77° |
| 2026-05-06 06:36 | -33.93591 | 151.18109 | 30 ft | 4 kts | 82° |
| 2026-05-06 06:36 | -33.93592 | 151.18077 | 30 ft | 4 kts | 101° |
| 2026-05-06 06:36 | -33.93579 | 151.18054 | 30 ft | 4 kts | 167° |
| 2026-05-06 06:36 | -33.93570 | 151.18054 | 30 ft | 1 kts | 182° |
| 2026-05-06 06:37 | -33.93569 | 151.18054 | 30 ft | 0 kts | 182° |
| 2026-05-06 06:41 | -33.93577 | 151.18054 | 30 ft | 4 kts | 181° |
| 2026-05-06 06:42 | -33.93629 | 151.18051 | 30 ft | 11 kts | 182° |
| 2026-05-06 06:42 | -33.93715 | 151.18061 | 30 ft | 12 kts | 169° |
| 2026-05-06 06:42 | -33.93779 | 151.18033 | 30 ft | 11 kts | 254° |
| 2026-05-06 06:42 | -33.93801 | 151.17941 | 30 ft | 11 kts | 254° |
| 2026-05-06 06:43 | -33.93824 | 151.17843 | 30 ft | 14 kts | 254° |
| 2026-05-06 06:43 | -33.93854 | 151.17717 | 29 ft | 16 kts | 254° |
| 2026-05-06 06:43 | -33.93882 | 151.17597 | 29 ft | 14 kts | 254° |
| 2026-05-06 06:43 | -33.93899 | 151.17526 | 28 ft | 0 kts | 254° |
| 2026-05-06 06:46 | -33.93902 | 151.17514 | 27 ft | 6 kts | 254° |
| 2026-05-06 06:47 | -33.93927 | 151.17429 | 26 ft | 13 kts | 224° |
| 2026-05-06 06:47 | -33.94076 | 151.17453 | 26 ft | 44 kts | 168° |
| 2026-05-06 06:47 | -33.94569 | 151.17581 | 30 ft | 99 kts | 167° |
| 2026-05-06 06:47 | -33.95386 | 151.17797 | 29 ft | 139 kts | 168° |
| 2026-05-06 06:48 | -33.96364 | 151.18031 | 282 ft | 150 kts | 166° |
| 2026-05-06 06:48 | -33.97421 | 151.18256 | 677 ft | 156 kts | 168° |
| 2026-05-06 06:48 | -33.98512 | 151.18217 | 1106 ft | 160 kts | 191° |
| 2026-05-06 06:48 | -33.99607 | 151.17888 | 1529 ft | 164 kts | 196° |
| 2026-05-06 06:49 | -34.00732 | 151.17617 | 1974 ft | 166 kts | 183° |
| 2026-05-06 06:49 | -34.01895 | 151.17548 | 2415 ft | 168 kts | 183° |
| 2026-05-06 06:49 | -34.03085 | 151.17688 | 2691 ft | 182 kts | 168° |
| 2026-05-06 06:49 | -34.04421 | 151.18067 | 2836 ft | 210 kts | 167° |
| 2026-05-06 06:50 | -34.05871 | 151.18518 | 3288 ft | 225 kts | 166° |
| 2026-05-06 06:50 | -34.07397 | 151.19025 | 3910 ft | 229 kts | 165° |
| 2026-05-06 06:50 | -34.08938 | 151.19557 | 4596 ft | 232 kts | 166° |
| 2026-05-06 06:50 | -34.10495 | 151.20096 | 5312 ft | 234 kts | 166° |
| 2026-05-06 06:51 | -34.12063 | 151.20642 | 6083 ft | 235 kts | 166° |
| 2026-05-06 06:51 | -34.13650 | 151.21191 | 6847 ft | 239 kts | 166° |
| 2026-05-06 06:51 | -34.15263 | 151.21744 | 7620 ft | 242 kts | 166° |
| 2026-05-06 06:51 | -34.16897 | 151.22294 | 8402 ft | 246 kts | 167° |
| 2026-05-06 06:52 | -34.18581 | 151.22482 | 9132 ft | 244 kts | 197° |
| 2026-05-06 06:52 | -34.19983 | 151.21526 | 9858 ft | 239 kts | 230° |
| 2026-05-06 06:52 | -34.21069 | 151.20001 | 10560 ft | 240 kts | 233° |
| 2026-05-06 06:52 | -34.22153 | 151.18455 | 11289 ft | 242 kts | 233° |
| 2026-05-06 06:53 | -34.23253 | 151.16915 | 12005 ft | 243 kts | 232° |
| 2026-05-06 06:53 | -34.24384 | 151.15384 | 12707 ft | 245 kts | 231° |
| 2026-05-06 06:53 | -34.25553 | 151.13872 | 13400 ft | 247 kts | 230° |
| 2026-05-06 06:53 | -34.26759 | 151.12380 | 14053 ft | 249 kts | 229° |
| 2026-05-06 06:54 | -34.27996 | 151.10898 | 14632 ft | 251 kts | 228° |
| 2026-05-06 06:54 | -34.29257 | 151.09420 | 15211 ft | 253 kts | 228° |
| 2026-05-06 06:54 | -34.30521 | 151.07957 | 15708 ft | 260 kts | 227° |
| 2026-05-06 06:54 | -34.31878 | 151.06410 | 15947 ft | 277 kts | 227° |
| 2026-05-06 06:55 | -34.33328 | 151.04760 | 16052 ft | 296 kts | 227° |
| 2026-05-06 06:55 | -34.34879 | 151.02991 | 16086 ft | 315 kts | 227° |
| 2026-05-06 06:55 | -34.36515 | 151.01126 | 16094 ft | 331 kts | 226° |
| 2026-05-06 06:55 | -34.38239 | 150.99190 | 16101 ft | 345 kts | 226° |
| 2026-05-06 06:56 | -34.40033 | 150.97176 | 16099 ft | 358 kts | 226° |
| 2026-05-06 06:56 | -34.41875 | 150.95084 | 16092 ft | 366 kts | 226° |
| 2026-05-06 06:56 | -34.43725 | 150.92960 | 16083 ft | 366 kts | 226° |
| 2026-05-06 06:56 | -34.45561 | 150.90886 | 16073 ft | 366 kts | 226° |
| 2026-05-06 06:57 | -34.47407 | 150.88768 | 16062 ft | 365 kts | 226° |
| 2026-05-06 06:57 | -34.49248 | 150.86645 | 16058 ft | 365 kts | 226° |
| 2026-05-06 06:57 | -34.51094 | 150.84541 | 16058 ft | 365 kts | 226° |
| 2026-05-06 06:57 | -34.52936 | 150.82424 | 16052 ft | 365 kts | 227° |
| 2026-05-06 06:58 | -34.54780 | 150.80300 | 16051 ft | 366 kts | 227° |
| 2026-05-06 06:58 | -34.56507 | 150.78056 | 16047 ft | 363 kts | 233° |
| 2026-05-06 06:58 | -34.58054 | 150.75643 | 16050 ft | 362 kts | 236° |
| 2026-05-06 06:58 | -34.59543 | 150.73169 | 16051 ft | 363 kts | 237° |
| 2026-05-06 06:59 | -34.60991 | 150.70706 | 16053 ft | 364 kts | 237° |
| 2026-05-06 06:59 | -34.62462 | 150.68201 | 16057 ft | 364 kts | 237° |
| 2026-05-06 06:59 | -34.63941 | 150.65709 | 16050 ft | 364 kts | 237° |
| 2026-05-06 06:59 | -34.65422 | 150.63216 | 16050 ft | 364 kts | 237° |
| 2026-05-06 07:00 | -34.66907 | 150.60724 | 16059 ft | 364 kts | 237° |
| 2026-05-06 07:00 | -34.68395 | 150.58230 | 16051 ft | 364 kts | 237° |
| 2026-05-06 07:00 | -34.69893 | 150.55751 | 16049 ft | 364 kts | 237° |
| 2026-05-06 07:00 | -34.71379 | 150.53254 | 16050 ft | 365 kts | 237° |
| 2026-05-06 07:01 | -34.72866 | 150.50753 | 16047 ft | 365 kts | 236° |
| 2026-05-06 07:01 | -34.74349 | 150.48305 | 16042 ft | 365 kts | 236° |
| 2026-05-06 07:01 | -34.75846 | 150.45808 | 16045 ft | 365 kts | 237° |
| 2026-05-06 07:01 | -34.77338 | 150.43314 | 16047 ft | 365 kts | 237° |
| 2026-05-06 07:02 | -34.78830 | 150.40815 | 16047 ft | 365 kts | 237° |
| 2026-05-06 07:02 | -34.80325 | 150.38312 | 16039 ft | 365 kts | 237° |
| 2026-05-06 07:02 | -34.81819 | 150.35812 | 16052 ft | 365 kts | 237° |
| 2026-05-06 07:02 | -34.83313 | 150.33322 | 16051 ft | 364 kts | 237° |
| 2026-05-06 07:03 | -34.84802 | 150.30838 | 16049 ft | 364 kts | 237° |
| 2026-05-06 07:03 | -34.86276 | 150.28372 | 16053 ft | 365 kts | 237° |
| 2026-05-06 07:03 | -34.87773 | 150.25872 | 16060 ft | 365 kts | 237° |
| 2026-05-06 07:03 | -34.89280 | 150.23390 | 16039 ft | 364 kts | 237° |
| 2026-05-06 07:04 | -34.90789 | 150.20907 | 16036 ft | 365 kts | 237° |
| 2026-05-06 07:04 | -34.92243 | 150.18377 | 16042 ft | 365 kts | 238° |
| 2026-05-06 07:04 | -34.93712 | 150.15852 | 16054 ft | 366 kts | 237° |
| 2026-05-06 07:04 | -34.95204 | 150.13343 | 16057 ft | 365 kts | 237° |
| 2026-05-06 07:05 | -34.96697 | 150.10845 | 16061 ft | 365 kts | 237° |
| 2026-05-06 07:05 | -34.98194 | 150.08341 | 16075 ft | 365 kts | 237° |
| 2026-05-06 07:05 | -34.99669 | 150.05829 | 16057 ft | 364 kts | 238° |
| 2026-05-06 07:05 | -35.01124 | 150.03354 | 16063 ft | 364 kts | 237° |
| 2026-05-06 07:06 | -35.02606 | 150.00847 | 16097 ft | 363 kts | 238° |
| 2026-05-06 07:06 | -35.04083 | 149.98335 | 16082 ft | 365 kts | 237° |
| 2026-05-06 07:06 | -35.05589 | 149.95843 | 16077 ft | 366 kts | 234° |
| 2026-05-06 07:06 | -35.07270 | 149.93505 | 16018 ft | 369 kts | 230° |
| 2026-05-06 07:07 | -35.09029 | 149.91247 | 15615 ft | 361 kts | 230° |
| 2026-05-06 07:07 | -35.10753 | 149.89086 | 15218 ft | 350 kts | 229° |
| 2026-05-06 07:07 | -35.12432 | 149.86996 | 14824 ft | 340 kts | 230° |
| 2026-05-06 07:07 | -35.14058 | 149.84951 | 14427 ft | 331 kts | 230° |
| 2026-05-06 07:08 | -35.15615 | 149.82956 | 14055 ft | 327 kts | 230° |
| 2026-05-06 07:08 | -35.17171 | 149.80948 | 13695 ft | 328 kts | 230° |
| 2026-05-06 07:08 | -35.18779 | 149.78853 | 13346 ft | 343 kts | 230° |
| 2026-05-06 07:08 | -35.20409 | 149.76745 | 12992 ft | 340 kts | 230° |
| 2026-05-06 07:09 | -35.22036 | 149.74653 | 12642 ft | 339 kts | 230° |
| 2026-05-06 07:09 | -35.23654 | 149.72573 | 12286 ft | 336 kts | 230° |
| 2026-05-06 07:09 | -35.25245 | 149.70524 | 11947 ft | 327 kts | 230° |
| 2026-05-06 07:09 | -35.26768 | 149.68562 | 11589 ft | 317 kts | 230° |
| 2026-05-06 07:10 | -35.28265 | 149.66626 | 11227 ft | 309 kts | 230° |
| 2026-05-06 07:10 | -35.29719 | 149.64734 | 10879 ft | 302 kts | 230° |
| 2026-05-06 07:10 | -35.31149 | 149.62880 | 10535 ft | 296 kts | 230° |
| 2026-05-06 07:10 | -35.32548 | 149.61067 | 10187 ft | 291 kts | 230° |
| 2026-05-06 07:11 | -35.33926 | 149.59272 | 9853 ft | 288 kts | 230° |
| 2026-05-06 07:11 | -35.35289 | 149.57493 | 9482 ft | 285 kts | 230° |
| 2026-05-06 07:11 | -35.36645 | 149.55729 | 9123 ft | 284 kts | 230° |
| 2026-05-06 07:11 | -35.37992 | 149.53969 | 8779 ft | 282 kts | 230° |
| 2026-05-06 07:12 | -35.39308 | 149.52239 | 8457 ft | 281 kts | 230° |
| 2026-05-06 07:12 | -35.40647 | 149.50502 | 8116 ft | 280 kts | 230° |
| 2026-05-06 07:12 | -35.41972 | 149.48771 | 7774 ft | 278 kts | 230° |
| 2026-05-06 07:12 | -35.43286 | 149.47042 | 7435 ft | 276 kts | 230° |
| 2026-05-06 07:13 | -35.44601 | 149.45325 | 7095 ft | 275 kts | 230° |
| 2026-05-06 07:13 | -35.45904 | 149.43621 | 6756 ft | 273 kts | 231° |
| 2026-05-06 07:13 | -35.46823 | 149.41662 | 6423 ft | 263 kts | 260° |
| 2026-05-06 07:13 | -35.46854 | 149.39463 | 6083 ft | 256 kts | 275° |
| 2026-05-06 07:14 | -35.46746 | 149.37315 | 5740 ft | 250 kts | 274° |
| 2026-05-06 07:14 | -35.46663 | 149.35240 | 5527 ft | 243 kts | 274° |
| 2026-05-06 07:14 | -35.46590 | 149.33219 | 5419 ft | 231 kts | 274° |
| 2026-05-06 07:14 | -35.46543 | 149.31307 | 5444 ft | 217 kts | 273° |
| 2026-05-06 07:15 | -35.46512 | 149.29512 | 5497 ft | 205 kts | 272° |
| 2026-05-06 07:15 | -35.46484 | 149.27758 | 5534 ft | 206 kts | 272° |
| 2026-05-06 07:15 | -35.46471 | 149.26058 | 5500 ft | 189 kts | 272° |
| 2026-05-06 07:15 | -35.46215 | 149.24592 | 5358 ft | 172 kts | 300° |
| 2026-05-06 07:16 | -35.45621 | 149.23351 | 5179 ft | 170 kts | 300° |
| 2026-05-06 07:16 | -35.45019 | 149.22089 | 4926 ft | 171 kts | 301° |
| 2026-05-06 07:16 | -35.44425 | 149.20866 | 4698 ft | 162 kts | 301° |
| 2026-05-06 07:16 | -35.43851 | 149.19706 | 4474 ft | 157 kts | 304° |
| 2026-05-06 07:17 | -35.43010 | 149.18897 | 4141 ft | 158 kts | 348° |
| 2026-05-06 07:17 | -35.41950 | 149.18972 | 4001 ft | 151 kts | 1° |
| 2026-05-06 07:17 | -35.40897 | 149.19116 | 3797 ft | 150 kts | 3° |
| 2026-05-06 07:17 | -35.39907 | 149.19328 | 3527 ft | 140 kts | 6° |
| 2026-05-06 07:18 | -35.38970 | 149.19451 | 3188 ft | 136 kts | 359° |
| 2026-05-06 07:18 | -35.38060 | 149.19473 | 3040 ft | 128 kts | 357° |
| 2026-05-06 07:18 | -35.37181 | 149.19473 | 2982 ft | 127 kts | 356° |
| 2026-05-06 07:18 | -35.36300 | 149.19476 | 2894 ft | 127 kts | 357° |
| 2026-05-06 07:19 | -35.35432 | 149.19476 | 2758 ft | 127 kts | 355° |
| 2026-05-06 07:19 | -35.34547 | 149.19473 | 2543 ft | 129 kts | 358° |
| 2026-05-06 07:19 | -35.33649 | 149.19474 | 2353 ft | 128 kts | 357° |
| 2026-05-06 07:19 | -35.32757 | 149.19460 | 2177 ft | 125 kts | 355° |
| 2026-05-06 07:20 | -35.31922 | 149.19449 | 1988 ft | 117 kts | 357° |
| 2026-05-06 07:20 | -35.31120 | 149.19446 | 1882 ft | 109 kts | 357° |
| 2026-05-06 07:20 | -35.30457 | 149.19441 | 1878 ft | 75 kts | 360° |
| 2026-05-06 07:20 | -35.30192 | 149.19439 | 1879 ft | 7 kts | 348° |
| 2026-05-06 07:21 | -35.30176 | 149.19394 | 1879 ft | 8 kts | 286° |
| 2026-05-06 07:21 | -35.30153 | 149.19299 | 1879 ft | 12 kts | 279° |
| 2026-05-06 07:21 | -35.30208 | 149.19239 | 1878 ft | 13 kts | 181° |
| 2026-05-06 07:21 | -35.30311 | 149.19239 | 1878 ft | 17 kts | 180° |
| 2026-05-06 07:22 | -35.30442 | 149.19238 | 1878 ft | 21 kts | 180° |
| 2026-05-06 07:22 | -35.30581 | 149.19238 | 1879 ft | 19 kts | 180° |
| 2026-05-06 07:22 | -35.30655 | 149.19195 | 1879 ft | 12 kts | 277° |
| 2026-05-06 07:22 | -35.30653 | 149.19139 | 1879 ft | 5 kts | 239° |
| 2026-05-06 07:23 | -35.30670 | 149.19109 | 1879 ft | 3 kts | 229° |
| 2026-05-06 07:23 | -35.30675 | 149.19101 | 1876 ft | 0 kts | 229° |